createdAt,value
2019-05-07T00:01:58.546Z,10.70
2019-05-07T00:07:06.163Z,5.60
2019-05-07T00:12:13.414Z,8.17
2019-05-07T00:17:22.693Z,7.57
2019-05-07T00:22:29.541Z,10.47
2019-05-07T00:27:37.061Z,6.30
2019-05-07T00:32:44.459Z,14.10
2019-05-07T00:37:57.297Z,21.07
2019-05-07T00:43:11.995Z,7.50
2019-05-07T00:48:19.321Z,4.97
2019-05-07T00:53:26.508Z,7.30
2019-05-07T00:58:33.680Z,6.33
2019-05-07T01:03:42.449Z,6.80
2019-05-07T01:08:49.974Z,6.53
2019-05-07T01:13:57.198Z,5.40
2019-05-07T01:19:04.277Z,5.23
2019-05-07T01:24:12.333Z,7.60
2019-05-07T01:29:19.771Z,7.03
2019-05-07T01:34:52.482Z,9.18
2019-05-07T01:39:59.945Z,7.90
2019-05-07T01:45:09.391Z,8.60
2019-05-07T01:50:16.871Z,5.27
2019-05-07T01:55:24.159Z,8.93
2019-05-07T02:00:32.625Z,5.03
2019-05-07T02:05:49.415Z,33.77
2019-05-07T02:11:02.193Z,8.07
2019-05-07T02:16:09.257Z,7.30
2019-05-07T02:21:17.474Z,36.37
2019-05-07T02:26:24.952Z,15.27
2019-05-07T02:31:33.717Z,10.97
2019-05-07T02:36:43.343Z,5.73
2019-05-07T02:41:50.147Z,7.00
2019-05-07T02:47:04.011Z,7.40
2019-05-07T02:52:18.613Z,7.08
2019-05-07T02:57:26.208Z,5.63
2019-05-07T03:02:33.587Z,6.97
2019-05-07T03:07:42.800Z,7.33
2019-05-07T03:12:49.394Z,7.17
2019-05-07T03:17:56.518Z,5.20
2019-05-07T03:23:04.582Z,6.93
2019-05-07T03:28:13.569Z,17.13
2019-05-07T03:33:36.538Z,9.23
2019-05-07T03:38:43.902Z,5.63
2019-05-07T03:43:52.702Z,7.17
2019-05-07T03:48:59.948Z,6.03
2019-05-07T03:54:07.124Z,9.83
2019-05-07T03:59:14.221Z,12.30
2019-05-07T04:04:23.046Z,6.57
2019-05-07T04:09:33.011Z,6.30
2019-05-07T04:14:38.889Z,6.80
2019-05-07T04:19:46.085Z,9.60
2019-05-07T04:25:13.210Z,7.50
2019-05-07T04:30:23.303Z,9.30
2019-05-07T04:35:35.633Z,6.80
2019-05-07T04:40:43.431Z,6.60
2019-05-07T04:45:53.666Z,6.53
2019-05-07T04:51:03.523Z,6.90
2019-05-07T04:56:10.164Z,6.40
2019-05-07T05:01:18.965Z,6.97
2019-05-07T05:06:26.023Z,6.10
2019-05-07T05:11:33.705Z,6.70
2019-05-07T05:16:42.531Z,6.20
2019-05-07T05:22:06.962Z,4.27
2019-05-07T05:27:14.068Z,13.77
2019-05-07T05:32:22.726Z,8.40
2019-05-07T05:37:32.126Z,6.97
2019-05-07T05:42:45.398Z,9.67
2019-05-07T05:48:04.110Z,5.10
2019-05-07T05:53:12.133Z,3.70
2019-05-07T05:58:32.520Z,5.93
2019-05-07T06:03:51.994Z,7.23
2019-05-07T06:09:21.915Z,7.27
2019-05-07T06:14:34.271Z,7.83
2019-05-07T06:19:57.360Z,5.00
2019-05-07T06:25:18.483Z,5.00
2019-05-07T06:30:25.674Z,4.77
2019-05-07T06:35:33.027Z,5.97
2019-05-07T06:40:56.269Z,5.47
2019-05-07T06:46:03.910Z,5.60
2019-05-07T06:51:12.602Z,5.97
2019-05-07T06:56:19.872Z,7.40
2019-05-07T07:01:54.917Z,6.67
2019-05-07T07:07:26.077Z,5.10
2019-05-07T07:12:26.182Z,6.55
2019-05-07T07:17:33.435Z,8.73
2019-05-07T07:22:42.474Z,3.43
2019-05-07T07:27:49.341Z,4.73
2019-05-07T07:32:58.268Z,3.27
2019-05-07T07:38:23.813Z,5.10
2019-05-07T07:43:32.528Z,9.60
2019-05-07T07:48:39.709Z,3.53
2019-05-07T07:53:47.904Z,4.70
2019-05-07T07:59:02.302Z,6.42
2019-05-07T08:04:12.098Z,7.13
2019-05-07T08:09:18.653Z,6.25
2019-05-07T08:14:25.971Z,3.40
2019-05-07T08:19:33.271Z,6.40
2019-05-07T08:24:42.406Z,1.67
2019-05-07T08:29:49.371Z,3.13
2019-05-07T08:35:08.741Z,3.90
2019-05-07T08:40:15.859Z,1.97
2019-05-07T08:45:43.015Z,3.42
2019-05-07T08:50:49.296Z,4.13
2019-05-07T08:55:58.015Z,5.60
2019-05-07T09:01:06.109Z,5.13
2019-05-07T09:06:14.657Z,4.23
2019-05-07T09:11:23.033Z,3.57
2019-05-07T09:16:31.940Z,4.73
2019-05-07T09:21:42.811Z,4.17
2019-05-07T09:27:05.211Z,5.30
2019-05-07T09:32:18.778Z,3.03
2019-05-07T09:37:27.712Z,2.57
2019-05-07T09:42:34.896Z,2.83
2019-05-07T09:47:42.000Z,6.17
2019-05-07T09:52:49.174Z,3.13
2019-05-07T09:57:56.295Z,3.70
2019-05-07T10:03:03.651Z,3.13
2019-05-07T10:08:12.841Z,4.37
2019-05-07T10:18:31.950Z,4.30
2019-05-07T10:23:39.077Z,4.57
2019-05-07T10:28:46.273Z,6.10
2019-05-07T10:33:53.367Z,4.27
2019-05-07T10:39:02.387Z,8.97
2019-05-07T10:44:11.983Z,3.83
2019-05-07T10:49:28.529Z,9.77
2019-05-07T10:54:36.347Z,18.20
2019-05-07T10:59:43.431Z,4.90
2019-05-07T11:04:50.516Z,3.83
2019-05-07T11:09:57.724Z,3.83
2019-05-07T11:15:05.027Z,5.97
2019-05-07T11:20:13.438Z,3.80
2019-05-07T11:25:22.375Z,6.15
2019-05-07T11:30:32.047Z,7.93
2019-05-07T11:35:42.317Z,4.47
2019-05-07T11:40:51.659Z,5.83
2019-05-07T11:46:07.882Z,5.63
2019-05-07T11:51:30.495Z,2.37
2019-05-07T11:56:38.907Z,2.57
2019-05-07T12:01:49.666Z,4.53
2019-05-07T12:06:56.992Z,2.47
2019-05-07T12:12:04.200Z,2.63
2019-05-07T12:17:11.953Z,3.50
2019-05-07T12:22:38.044Z,8.47
2019-05-07T12:27:47.852Z,4.07
2019-05-07T12:33:02.774Z,4.20
2019-05-07T12:38:12.674Z,4.20
2019-05-07T12:43:18.951Z,5.90
2019-05-07T12:48:26.024Z,4.83
2019-05-07T12:53:42.525Z,4.43
2019-05-07T12:58:51.701Z,3.63
2019-05-07T13:04:02.648Z,4.10
2019-05-07T13:09:12.615Z,4.17
2019-05-07T13:14:21.849Z,6.17
2019-05-07T13:19:29.444Z,3.53
2019-05-07T13:24:36.608Z,7.40
2019-05-07T13:29:44.904Z,3.83
2019-05-07T13:34:53.833Z,3.90
2019-05-07T13:40:14.246Z,3.83
2019-05-07T13:45:53.131Z,2.30
2019-05-07T13:51:01.779Z,4.57
2019-05-07T13:56:09.015Z,2.57
2019-05-07T14:01:33.641Z,3.30
2019-05-07T14:06:43.066Z,2.70
2019-05-07T14:11:49.729Z,2.40
2019-05-07T14:16:57.265Z,1.63
2019-05-07T14:22:15.252Z,4.33
2019-05-07T14:27:13.416Z,1.73
2019-05-07T14:32:26.579Z,2.75
2019-05-07T14:37:37.467Z,1.97
2019-05-07T14:42:49.282Z,4.23
2019-05-07T14:47:56.483Z,3.87
2019-05-07T14:53:03.794Z,2.33
2019-05-07T14:58:12.376Z,3.63
2019-05-07T15:03:20.079Z,2.70
2019-05-07T15:08:27.709Z,11.40
2019-05-07T15:13:35.565Z,2.10
2019-05-07T15:18:59.419Z,9.37
2019-05-07T15:24:06.489Z,9.77
2019-05-07T15:29:14.746Z,2.27
2019-05-07T15:34:22.407Z,4.30
2019-05-07T15:39:29.627Z,4.33
2019-05-07T15:44:36.947Z,98.37
2019-05-07T15:49:44.381Z,12.03
2019-05-07T15:54:52.216Z,5.03
2019-05-07T16:00:09.111Z,3.87
2019-05-07T16:05:17.136Z,9.90
2019-05-07T16:10:24.299Z,3.87
2019-05-07T16:15:31.999Z,18.13
2019-05-07T16:20:39.330Z,3.70
2019-05-07T16:25:46.751Z,5.60
2019-05-07T16:30:54.349Z,3.40
2019-05-07T16:36:02.190Z,11.90
2019-05-07T16:41:13.394Z,9.17
2019-05-07T16:46:18.463Z,4.77
2019-05-07T16:51:25.590Z,10.67
2019-05-07T16:56:33.533Z,4.37
2019-05-07T17:01:42.953Z,4.97
2019-05-07T17:06:51.751Z,5.93
2019-05-07T17:12:00.609Z,4.37
2019-05-07T17:17:07.864Z,5.23
2019-05-07T17:22:15.693Z,5.30
2019-05-07T17:27:23.618Z,3.17
2019-05-07T17:32:32.132Z,6.57
2019-05-07T17:37:39.550Z,12.00
2019-05-07T17:42:47.428Z,21.37
2019-05-07T17:47:54.611Z,12.47
2019-05-07T17:53:01.717Z,7.50
2019-05-07T17:58:09.033Z,8.83
2019-05-07T18:03:34.255Z,8.50
2019-05-07T18:08:41.405Z,6.13
2019-05-07T18:13:48.592Z,11.20
2019-05-07T18:18:56.089Z,8.83
2019-05-07T18:24:13.442Z,7.30
2019-05-07T18:29:12.103Z,8.57
2019-05-07T18:34:20.152Z,8.50
2019-05-07T18:39:28.835Z,28.10
2019-05-07T18:44:36.251Z,20.77
2019-05-07T18:49:44.867Z,12.60
2019-05-07T18:54:52.130Z,9.07
2019-05-07T19:00:02.402Z,19.93
2019-05-07T19:05:10.252Z,11.48
2019-05-07T19:10:17.707Z,7.20
2019-05-07T19:15:25.191Z,5.87
2019-05-07T19:20:32.764Z,3.47
2019-05-07T19:25:42.077Z,6.93
2019-05-07T19:30:49.824Z,3.60
2019-05-07T19:35:57.444Z,6.30
2019-05-07T19:41:06.106Z,3.50
2019-05-07T19:46:13.286Z,3.93
2019-05-07T19:51:20.521Z,3.47
2019-05-07T19:56:33.861Z,5.23
2019-05-07T20:01:48.259Z,7.03
2019-05-07T20:06:55.380Z,1.90
2019-05-07T20:12:02.720Z,3.97
2019-05-07T20:17:12.128Z,2.70
2019-05-07T20:22:18.841Z,2.37
2019-05-07T20:27:26.191Z,4.60
2019-05-07T20:32:33.314Z,2.37
2019-05-07T20:37:41.933Z,5.10
2019-05-07T20:42:49.394Z,3.17
2019-05-07T20:47:57.567Z,5.47
2019-05-07T20:53:04.706Z,8.90
2019-05-07T20:58:12.907Z,5.37
2019-05-07T21:03:20.383Z,17.53
2019-05-07T21:08:27.495Z,39.57
2019-05-07T21:13:35.051Z,25.60
2019-05-07T21:18:42.566Z,26.33
2019-05-07T21:23:49.923Z,37.43
2019-05-07T21:28:56.989Z,40.70
2019-05-07T21:34:04.372Z,23.07
2019-05-07T21:39:13.028Z,23.07
2019-05-07T21:44:22.681Z,23.87
2019-05-07T21:49:29.650Z,33.80
2019-05-07T21:55:02.346Z,50.20
2019-05-07T22:00:40.494Z,57.80
2019-05-07T22:05:51.749Z,49.20
2019-05-07T22:10:59.974Z,45.07
2019-05-07T22:16:07.601Z,50.20
2019-05-07T22:21:14.816Z,50.33
2019-05-07T22:26:26.167Z,55.67
2019-05-07T22:31:52.850Z,53.47
2019-05-07T22:36:59.909Z,59.77
2019-05-07T22:42:14.624Z,78.43
2019-05-07T22:47:22.592Z,115.12
2019-05-07T22:52:30.136Z,129.07
2019-05-07T22:57:56.305Z,120.73
2019-05-07T23:03:03.581Z,103.10
2019-05-07T23:08:12.669Z,77.40
2019-05-07T23:13:19.466Z,63.90
2019-05-07T23:18:26.528Z,73.77
2019-05-07T23:23:34.502Z,99.70
2019-05-07T23:28:41.943Z,104.10
2019-05-07T23:33:52.130Z,90.97
2019-05-07T23:38:58.655Z,95.03
2019-05-07T23:44:16.948Z,86.83
2019-05-07T23:49:24.475Z,97.17
2019-05-07T23:54:31.995Z,126.70
2019-05-07T23:59:39.214Z,152.63
